Huvudsida
METAR-TAF:

METAR-TAF

Flygplatser :

Wick Airport

Wick, Skottland

latitud: 58-27N, longitud: 003-05W, höjd: 39 m

Aktuellt väderrapport

Denna rapport gjordes för 44 minuter sedan, klockan 20:50 UTC
Vind 11 kt från väst/sydväst i byarna ända upp till 21 kt
Temperatur 9°C
Fuktighet 71%
Tryck 1034 hPa
Sikt 10 km eller mer

METAR: EGPC 192050Z AUTO 25011G21KT 9999 NCD 09/04 Q1034

Tid: 21:34 (21:34 UTC)

Väderprognos

Denna rapport gjordes för 1 timme och 39 minuter sedan, klockan 19:55 UTC
Prognos gäller från 19 kl. 21 UTC till 20 kl. 06 UTC
Vind 9 kt från sydväst
Sikt 10 km eller mer
Spridda moln på en höjd av 2000 ft
Sannolikhet 30% :
Temporärt
från 19 kl. 21 UTC till 20 kl. 06 UTC
Vind 15 kt från väst/sydväst i byarna ända upp till 25 kt

TAF: EGPC 191955Z 1921/2006 22009KT 9999 SCT020 PROB30 TEMPO 1921/2006 24015G25KT

Aktuella väderrapporter och prognoser från 4000 flygplatser (METAR- och TAF-rapporter).

De tillgängliga stationerna syns som gula och röda prickar på kartan.

För musen över prickarna för att se namnen på stationerna.

Klicka sedan för att få väderrapporter och prognoser.

För att ändra kartan: Klicka på de gröna knapparna med ett svart kors på för att zooma in; den gröna knappen med ett streck på för att zooma ut; eller på de gröna pilarna för angränsande kartor.


METAR-TAF: